Time;durP1;ratioP1;P1;durP2;ratioP2;P2;SDS_P1;SDS_P2;PMS_P1;PMS_P2;Temp;Humidity;BMP_temperature;BMP_pressure;BME280_temperature;BME280_humidity;BME280_pressure;Samples;Min_cycle;Max_cycle;Signal;HPM_P1;HPM_P2
2022/10/07 00:01:24;;;;;;;;;10.75;9.00;;;;;16.03;51.64;102058.13;4974032;28;45667;-78
2022/10/07 00:03:49;;;;;;;;;11.75;10.00;;;;;16.00;51.42;102061.81;4973224;28;45698;-78
2022/10/07 00:06:18;;;;;;;;;8.25;8.00;;;;;15.94;51.85;102056.94;4972575;28;45700;-79
2022/10/07 00:08:47;;;;;;;;;9.25;7.00;;;;;15.91;51.96;102060.69;4958599;28;45916;-78
2022/10/07 00:11:21;;;;;;;;;7.75;6.75;;;;;15.84;52.03;102056.75;4972562;28;45746;-78
2022/10/07 00:13:51;;;;;;;;;12.00;9.25;;;;;15.76;52.07;102050.34;4972584;28;45564;-76
2022/10/07 00:16:19;;;;;;;;;11.00;8.00;;;;;15.74;52.57;102050.44;4972598;28;45837;-77
2022/10/07 00:18:47;;;;;;;;;12.50;11.00;;;;;15.69;52.47;102052.56;4971534;28;46078;-77
2022/10/07 00:21:15;;;;;;;;;11.75;8.00;;;;;15.65;52.58;102050.22;4974457;28;45795;-77
2022/10/07 00:23:41;;;;;;;;;12.50;8.00;;;;;15.59;52.57;102038.28;4977070;28;45999;-77
2022/10/07 00:26:08;;;;;;;;;15.00;10.00;;;;;15.56;52.40;102045.56;4984976;28;45895;-77
2022/10/07 00:28:35;;;;;;;;;12.00;10.00;;;;;15.53;52.50;102044.84;4974363;28;46487;-77
2022/10/07 00:31:06;;;;;;;;;11.75;9.00;;;;;15.50;52.67;102028.31;4975569;28;45990;-77
2022/10/07 00:33:34;;;;;;;;;9.25;8.00;;;;;15.50;52.74;102038.88;4975600;28;45753;-77
2022/10/07 00:36:00;;;;;;;;;14.50;7.00;;;;;15.51;52.88;102040.56;4975654;28;46610;-77
2022/10/07 00:38:26;;;;;;;;;6.00;5.75;;;;;15.49;52.72;102038.03;4974387;28;45679;-77
2022/10/07 00:40:51;;;;;;;;;6.00;5.75;;;;;15.49;52.71;102037.22;4994694;28;45859;-77
2022/10/07 00:43:25;;;;;;;;;11.50;7.25;;;;;15.43;52.84;102024.41;4997593;28;45606;-78
2022/10/07 00:45:54;;;;;;;;;11.75;10.75;;;;;15.42;52.91;102031.50;4995147;28;45661;-77
2022/10/07 00:48:25;;;;;;;;;12.25;8.00;;;;;15.40;52.72;102024.59;4994121;28;46043;-77
2022/10/07 00:50:55;;;;;;;;;11.25;9.50;;;;;15.37;52.58;102028.31;4995323;28;45861;-78
2022/10/07 00:53:23;;;;;;;;;12.50;10.75;;;;;15.36;53.05;102031.06;4995491;28;45726;-76
2022/10/07 00:55:49;;;;;;;;;12.75;8.00;;;;;15.33;52.95;102020.72;4995103;28;46853;-76
2022/10/07 00:58:14;;;;;;;;;5.50;5.50;;;;;15.32;52.96;102024.31;4996935;28;45981;-77
2022/10/07 01:00:41;;;;;;;;;7.50;6.25;;;;;15.29;53.28;102016.56;4995115;28;45695;-77
2022/10/07 01:03:06;;;;;;;;;5.00;5.00;;;;;15.26;53.10;102020.28;4995195;28;45747;-77
2022/10/07 01:05:31;;;;;;;;;6.00;6.00;;;;;15.23;53.05;102009.91;4994837;28;45702;-78
2022/10/07 01:07:58;;;;;;;;;6.25;5.00;;;;;15.21;53.35;102009.19;4993440;28;45923;-77
2022/10/07 01:10:30;;;;;;;;;5.25;5.00;;;;;15.18;53.24;102005.91;4994441;28;45743;-77
2022/10/07 01:13:06;;;;;;;;;4.75;4.00;;;;;15.19;53.63;102007.59;4995027;28;45678;-78
2022/10/07 01:15:38;;;;;;;;;10.50;6.50;;;;;15.17;53.50;102007.69;4993322;28;47043;-78
2022/10/07 01:18:30;;;;;;;;;8.25;6.25;;;;;15.15;53.57;101987.63;4992951;28;46181;-77
2022/10/07 01:21:19;;;;;;;;;4.25;4.00;;;;;15.16;53.73;101994.63;4994687;28;45749;-78
2022/10/07 01:24:03;;;;;;;;;7.75;6.00;;;;;15.17;53.66;101988.38;4994565;28;45705;-78
2022/10/07 01:26:40;;;;;;;;;8.00;5.50;;;;;15.16;53.79;101994.63;4994072;28;46543;-77
2022/10/07 01:29:12;;;;;;;;;6.25;5.00;;;;;15.16;53.90;101987.53;4993323;28;45866;-77
2022/10/07 01:31:52;;;;;;;;;8.75;6.50;;;;;15.15;53.83;101983.22;4994290;28;46015;-77
2022/10/07 01:34:22;;;;;;;;;8.50;7.25;;;;;15.17;53.73;101985.75;4996886;28;47300;-78
2022/10/07 01:36:52;;;;;;;;;7.75;6.25;;;;;15.14;54.00;101978.88;4993923;28;47313;-78
2022/10/07 01:39:24;;;;;;;;;6.75;6.00;;;;;15.19;54.05;101984.69;4993188;28;45941;-77
2022/10/07 01:41:51;;;;;;;;;6.25;6.25;;;;;15.19;54.31;101975.91;4994175;28;45661;-78
2022/10/07 01:44:17;;;;;;;;;8.50;7.00;;;;;15.20;54.37;101981.09;4994606;28;45715;-77
2022/10/07 01:46:42;;;;;;;;;10.25;10.00;;;;;15.23;54.17;101975.59;4993882;28;45564;-78
2022/10/07 01:49:08;;;;;;;;;13.00;9.75;;;;;15.22;54.20;101966.00;4998245;28;45605;-78
2022/10/07 01:51:37;;;;;;;;;10.00;10.00;;;;;15.22;54.49;101966.00;4994612;28;45920;-76
2022/10/07 01:54:08;;;;;;;;;9.75;8.75;;;;;15.24;54.56;101957.97;4994006;28;45729;-78
2022/10/07 01:57:02;;;;;;;;;8.50;7.00;;;;;15.24;54.33;101955.31;4994006;28;45818;-77
2022/10/07 01:59:54;;;;;;;;;11.00;7.50;;;;;15.23;54.51;101950.97;5008136;28;45743;-77
2022/10/07 02:02:34;;;;;;;;;7.75;6.75;;;;;15.23;54.23;101941.25;4992695;28;45855;-78
2022/10/07 02:05:14;;;;;;;;;15.75;13.25;;;;;15.22;54.50;101950.16;4993920;28;45765;-77
2022/10/07 02:07:58;;;;;;;;;13.50;11.00;;;;;15.21;54.50;101940.53;4993298;28;45575;-78
2022/10/07 02:10:33;;;;;;;;;10.75;7.00;;;;;15.18;54.19;101937.25;4993233;28;46722;-77
2022/10/07 02:13:05;;;;;;;;;8.00;7.00;;;;;15.17;54.30;101935.59;4993544;28;45982;-77
2022/10/07 02:15:49;;;;;;;;;10.75;7.00;;;;;15.16;54.58;101933.88;4984833;28;46037;-77
2022/10/07 02:18:17;;;;;;;;;8.00;7.00;;;;;15.12;54.37;101930.59;4992771;28;46149;-77
2022/10/07 02:20:46;;;;;;;;;8.75;6.50;;;;;15.11;54.56;101929.75;4993299;28;46231;-77
2022/10/07 02:23:14;;;;;;;;;9.25;7.50;;;;;15.09;54.67;101930.81;4998876;28;45717;-78
2022/10/07 02:25:45;;;;;;;;;7.50;6.75;;;;;15.05;54.57;101917.00;4994181;28;45876;-78
2022/10/07 02:28:14;;;;;;;;;10.00;7.75;;;;;15.02;54.71;101919.00;4992565;28;46357;-77
2022/10/07 02:30:43;;;;;;;;;9.00;8.00;;;;;14.99;54.43;101911.28;4993103;28;46198;-77
2022/10/07 02:33:09;;;;;;;;;8.25;6.25;;;;;14.97;54.66;101911.38;4993335;28;46066;-78
2022/10/07 02:35:44;;;;;;;;;6.25;6.00;;;;;14.99;54.94;101904.22;4993343;28;45938;-78
2022/10/07 02:38:13;;;;;;;;;9.50;6.00;;;;;14.98;55.11;101904.31;4992270;28;45651;-78
2022/10/07 02:41:09;;;;;;;;;10.00;9.75;;;;;14.96;54.63;101895.66;5008461;28;46610;-78
2022/10/07 02:43:35;;;;;;;;;12.00;10.25;;;;;14.92;54.75;101899.47;4980246;28;45749;-77
2022/10/07 02:46:08;;;;;;;;;13.25;11.50;;;;;14.90;54.96;101893.47;4993031;28;45703;-78
2022/10/07 02:48:40;;;;;;;;;12.00;10.00;;;;;14.86;54.85;101892.81;4991813;28;45810;-77
2022/10/07 02:51:17;;;;;;;;;9.75;7.75;;;;;14.85;55.09;101891.09;4992782;28;45801;-78
2022/10/07 02:53:44;;;;;;;;;13.00;8.25;;;;;14.85;54.96;101891.09;4993060;28;45697;-77
2022/10/07 02:56:11;;;;;;;;;14.50;11.00;;;;;14.83;55.28;101882.47;4991785;28;45652;-77
2022/10/07 02:58:43;;;;;;;;;10.00;9.25;;;;;14.84;55.31;101889.44;4997672;28;45738;-77
2022/10/07 03:01:11;;;;;;;;;10.75;9.75;;;;;14.83;55.43;101885.13;4992816;28;46129;-79
2022/10/07 03:03:37;;;;;;;;;12.00;11.00;;;;;14.84;55.27;101875.41;4993049;28;45750;-78
2022/10/07 03:06:03;;;;;;;;;10.00;9.00;;;;;14.84;55.20;101875.41;4992599;28;46275;-76
2022/10/07 03:08:28;;;;;;;;;13.50;10.75;;;;;14.82;55.20;101878.13;4991501;28;47607;-76
2022/10/07 03:10:54;;;;;;;;;12.25;10.00;;;;;14.82;55.13;101872.88;4992347;28;46712;-76
2022/10/07 03:13:19;;;;;;;;;12.00;10.00;;;;;14.80;55.45;101866.84;4992621;28;45737;-78
2022/10/07 03:15:45;;;;;;;;;12.50;11.75;;;;;14.80;55.44;101874.75;4993227;28;45692;-77
2022/10/07 03:18:24;;;;;;;;;11.50;10.75;;;;;14.77;55.35;101858.28;4992167;28;45600;-77
2022/10/07 03:20:58;;;;;;;;;12.75;11.25;;;;;14.74;55.66;101861.97;4980806;28;46028;-77
2022/10/07 03:23:24;;;;;;;;;10.25;9.50;;;;;14.71;55.64;101867.47;4992600;28;45763;-77
2022/10/07 03:25:52;;;;;;;;;12.00;10.00;;;;;14.68;55.30;101867.69;4992476;28;45745;-75
2022/10/07 03:28:24;;;;;;;;;13.25;11.50;;;;;14.64;55.85;101869.69;4991553;28;45815;-76
2022/10/07 03:30:50;;;;;;;;;14.00;12.50;;;;;14.61;55.46;101855.88;4994428;28;46712;-80
2022/10/07 03:33:18;;;;;;;;;12.00;10.00;;;;;14.58;55.60;101854.25;4994147;28;45938;-76
2022/10/07 03:35:43;;;;;;;;;11.50;9.00;;;;;14.54;55.43;101852.78;4992682;28;45716;-76
2022/10/07 03:38:09;;;;;;;;;10.50;10.25;;;;;14.52;55.45;101859.13;4991645;28;46274;-76
2022/10/07 03:40:35;;;;;;;;;11.25;10.00;;;;;14.50;55.62;101853.97;4991521;28;45891;-76
2022/10/07 03:43:01;;;;;;;;;11.75;9.50;;;;;14.43;55.54;101841.28;4992010;28;45936;-78
2022/10/07 03:45:29;;;;;;;;;10.75;10.00;;;;;14.44;55.89;101848.25;4992294;28;45694;-77
2022/10/07 03:47:55;;;;;;;;;15.25;11.00;;;;;14.43;55.66;101857.94;4991903;28;45737;-80
2022/10/07 03:50:20;;;;;;;;;12.00;9.50;;;;;14.39;55.87;101855.63;4991717;28;46893;-78
2022/10/07 03:52:45;;;;;;;;;11.50;10.00;;;;;14.37;56.01;101850.44;4992204;28;45990;-78
2022/10/07 03:55:11;;;;;;;;;10.25;9.75;;;;;14.33;56.23;101854.22;4991779;28;45712;-80
2022/10/07 03:57:56;;;;;;;;;10.75;10.00;;;;;14.34;56.00;101850.63;4991214;28;45716;-79
2022/10/07 04:00:24;;;;;;;;;10.00;10.00;;;;;14.34;56.21;101845.34;4991986;28;46204;-79
2022/10/07 04:02:50;;;;;;;;;10.75;9.75;;;;;14.35;56.44;101849.69;4992078;28;45820;-79
2022/10/07 04:05:17;;;;;;;;;12.25;10.00;;;;;14.35;56.07;101847.06;4998296;28;45916;-77
2022/10/07 04:07:44;;;;;;;;;12.00;11.00;;;;;14.34;56.58;101845.34;4992310;28;45968;-76
2022/10/07 04:10:12;;;;;;;;;11.00;10.25;;;;;14.36;56.27;101845.25;4991507;28;45864;-76
2022/10/07 04:12:38;;;;;;;;;11.00;9.75;;;;;14.35;56.35;101847.06;4991418;28;45603;-77
2022/10/07 04:15:03;;;;;;;;;11.00;10.50;;;;;14.36;56.69;101845.25;4991921;28;45695;-76
2022/10/07 04:17:29;;;;;;;;;11.50;10.25;;;;;14.37;56.54;101844.31;4990732;28;47954;-76
2022/10/07 04:19:54;;;;;;;;;9.75;8.50;;;;;14.37;56.38;101839.91;4991827;28;46032;-76
2022/10/07 04:22:19;;;;;;;;;12.00;10.50;;;;;14.38;56.25;101838.09;4975162;28;45754;-78
2022/10/07 04:25:32;;;;;;;;;11.75;11.00;;;;;14.38;56.38;101840.75;4991862;28;45568;-77
2022/10/07 04:27:33;;;;;;;;;11.00;10.25;;;;;14.37;56.60;101831.13;4979578;28;45803;-78
2022/10/07 04:29:58;;;;;;;;;15.00;12.50;;;;;14.39;56.67;101834.53;4991059;28;45861;-77
2022/10/07 04:32:24;;;;;;;;;12.00;11.75;;;;;14.35;56.47;101830.38;4991401;28;45628;-77
2022/10/07 04:34:51;;;;;;;;;12.00;12.00;;;;;14.38;56.54;101832.84;4991838;28;45510;-77
2022/10/07 04:37:17;;;;;;;;;16.50;13.75;;;;;14.36;56.49;101827.63;4990560;28;45696;-78
2022/10/07 04:39:43;;;;;;;;;14.25;12.00;;;;;14.36;56.75;101830.25;4991588;28;46218;-77
2022/10/07 04:43:17;;;;;;;;;11.25;10.50;;;;;14.38;56.61;101830.19;4991534;28;45744;-77
2022/10/07 04:44:54;;;;;;;;;14.00;12.00;;;;;14.37;56.92;101828.50;4991230;28;45923;-77
2022/10/07 04:47:19;;;;;;;;;14.75;12.00;;;;;14.34;56.86;101820.78;4990953;28;45862;-77
2022/10/07 04:49:44;;;;;;;;;14.00;13.25;;;;;14.36;56.85;101818.91;4986018;28;46354;-79
2022/10/07 04:52:10;;;;;;;;;13.75;13.00;;;;;14.34;56.69;101812.88;4982536;28;45743;-76
2022/10/07 04:54:38;;;;;;;;;11.25;10.25;;;;;14.34;56.60;101819.00;4990966;28;45861;-79
2022/10/07 04:57:03;;;;;;;;;15.00;12.75;;;;;14.32;57.13;101806.84;4992229;28;46624;-79
2022/10/07 04:59:29;;;;;;;;;17.75;15.50;;;;;14.36;56.84;101813.63;4990897;28;45920;-79
2022/10/07 05:01:54;;;;;;;;;14.25;13.25;;;;;14.33;56.92;101804.13;4991131;28;45840;-78
2022/10/07 05:04:20;;;;;;;;;18.25;14.00;;;;;14.36;56.84;101816.25;4991339;28;45767;-79
2022/10/07 05:06:45;;;;;;;;;14.75;12.75;;;;;14.35;57.11;101815.41;4991029;28;45814;-78
2022/10/07 05:09:11;;;;;;;;;13.00;12.50;;;;;14.32;56.88;101814.75;4993350;28;45769;-79
2022/10/07 05:11:36;;;;;;;;;17.75;13.75;;;;;14.34;57.07;101813.72;4994533;28;45710;-77
2022/10/07 05:14:02;;;;;;;;;16.25;13.75;;;;;14.33;56.77;101816.44;4994524;28;45750;-78
2022/10/07 05:16:27;;;;;;;;;13.00;12.75;;;;;14.32;56.93;101818.25;4994430;28;46602;-78
2022/10/07 05:18:52;;;;;;;;;14.00;13.00;;;;;14.32;56.74;101826.16;4993442;28;45800;-77
2022/10/07 05:21:18;;;;;;;;;13.75;12.25;;;;;14.30;57.08;101809.59;4995095;28;46121;-80
2022/10/07 05:23:43;;;;;;;;;16.00;13.00;;;;;14.30;56.72;101812.25;4994473;28;45666;-77
2022/10/07 05:26:09;;;;;;;;;12.00;11.50;;;;;14.28;56.86;101814.97;4994037;28;46334;-77
2022/10/07 05:28:36;;;;;;;;;12.00;11.75;;;;;14.28;57.10;101808.84;4993292;28;46207;-77
2022/10/07 05:31:04;;;;;;;;;13.00;12.75;;;;;14.28;56.88;101803.59;4993869;28;45505;-76
2022/10/07 05:33:30;;;;;;;;;13.00;12.75;;;;;14.24;56.74;101808.22;4993962;28;45902;-79
2022/10/07 05:35:56;;;;;;;;;10.25;9.00;;;;;14.26;56.87;101810.72;4994250;28;46629;-79
2022/10/07 05:38:22;;;;;;;;;13.25;12.00;;;;;14.24;57.24;101810.88;4993573;28;46305;-77
2022/10/07 05:40:54;;;;;;;;;13.75;13.00;;;;;14.24;57.01;101808.22;4993170;28;45889;-77
2022/10/07 05:43:20;;;;;;;;;13.00;12.00;;;;;14.22;56.92;101804.84;4994183;28;45681;-77
2022/10/07 05:45:46;;;;;;;;;16.75;12.75;;;;;14.20;56.80;101806.72;4993694;28;45713;-78
2022/10/07 05:48:11;;;;;;;;;12.00;12.00;;;;;14.18;57.27;101798.09;4995938;28;46054;-77
2022/10/07 05:50:38;;;;;;;;;11.00;9.50;;;;;14.19;57.42;101810.31;4995951;28;45908;-79
2022/10/07 05:53:04;;;;;;;;;13.50;12.25;;;;;14.16;57.26;101807.03;4996419;28;45795;-78
2022/10/07 05:55:29;;;;;;;;;17.75;13.25;;;;;14.14;56.90;101799.22;4996210;28;46567;-79
2022/10/07 06:01:19;;;;;;;;;13.25;13.25;;;;;14.13;57.09;101802.81;4998038;28;45584;-79
2022/10/07 06:03:50;;;;;;;;;16.50;14.50;;;;;14.12;57.01;101805.56;4996059;28;45815;-76
2022/10/07 06:06:16;;;;;;;;;16.00;13.00;;;;;14.08;57.55;101794.38;4995902;28;45640;-77
2022/10/07 06:08:42;;;;;;;;;14.50;12.00;;;;;14.12;57.37;101810.81;4995580;28;46002;-75
2022/10/07 06:13:54;;;;;;;;;13.00;10.75;;;;;14.10;57.77;101807.44;4995092;28;45702;-76
2022/10/07 06:16:22;;;;;;;;;14.25;13.50;;;;;14.06;57.32;101798.06;4995580;28;45491;-80
2022/10/07 06:18:49;;;;;;;;;13.75;11.25;;;;;14.09;57.36;101798.69;4994633;28;45894;-80
2022/10/07 06:21:14;;;;;;;;;17.50;14.75;;;;;14.08;57.40;101801.44;4995047;28;45686;-76
2022/10/07 06:23:40;;;;;;;;;13.50;13.00;;;;;14.07;57.18;101805.03;4995863;28;45700;-75
2022/10/07 06:32:13;;;;;;;;;16.00;12.00;;;;;14.06;57.26;101798.91;4995278;28;45635;-74
2022/10/07 06:34:39;;;;;;;;;16.75;14.50;;;;;14.05;57.50;101802.47;4995719;28;45800;-75
2022/10/07 06:37:04;;;;;;;;;13.50;12.75;;;;;14.03;57.49;101801.75;4995286;28;45586;-78
2022/10/07 06:39:29;;;;;;;;;13.50;13.00;;;;;14.04;57.29;101798.16;4995041;28;45666;-78
2022/10/07 06:41:56;;;;;;;;;12.00;12.00;;;;;14.05;57.59;101801.63;4995054;28;45673;-77
2022/10/07 06:44:21;;;;;;;;;12.50;11.00;;;;;14.04;57.37;101808.69;4995150;28;45626;-76
2022/10/07 06:46:46;;;;;;;;;13.00;12.00;;;;;14.04;57.09;101802.56;4994686;28;47539;-75
2022/10/07 06:49:11;;;;;;;;;12.75;12.00;;;;;14.04;57.44;101803.41;4994854;28;47121;-75
2022/10/07 06:51:37;;;;;;;;;13.00;10.00;;;;;14.04;57.09;101806.06;4977316;28;45670;-74
2022/10/07 06:54:02;;;;;;;;;12.75;11.75;;;;;14.05;57.19;101801.63;4995119;28;45699;-75
2022/10/07 06:56:28;;;;;;;;;16.50;14.00;;;;;14.05;57.19;101801.63;4994929;28;45578;-77
2022/10/07 07:02:14;;;;;;;;;14.25;12.00;;;;;14.06;57.14;101803.31;4994921;28;45653;-75
2022/10/07 07:04:40;;;;;;;;;12.75;12.00;;;;;14.06;57.48;101801.53;4995246;28;45548;-74
2022/10/07 07:07:05;;;;;;;;;13.75;12.75;;;;;14.07;56.88;101802.38;4994653;28;47037;-75
2022/10/07 07:09:30;;;;;;;;;16.25;12.50;;;;;14.07;57.25;101808.50;4994766;28;46577;-74
2022/10/07 07:11:56;;;;;;;;;19.25;14.50;;;;;14.07;57.14;101805.03;4994693;28;45665;-75
2022/10/07 07:14:22;;;;;;;;;14.00;12.00;;;;;14.07;57.22;101805.88;4994767;28;45580;-74
2022/10/07 07:16:47;;;;;;;;;12.50;11.00;;;;;14.08;57.00;101804.94;4994625;28;46470;-76
2022/10/07 07:19:13;;;;;;;;;11.00;11.00;;;;;14.08;57.41;101804.94;4994803;28;46825;-75
2022/10/07 07:21:39;;;;;;;;;14.00;11.75;;;;;14.10;57.01;101810.91;4994810;28;45577;-74
2022/10/07 07:24:06;;;;;;;;;16.00;16.00;;;;;14.11;57.53;101803.84;4994956;28;45670;-77
2022/10/07 07:26:32;;;;;;;;;16.50;14.25;;;;;14.12;56.96;101798.50;4994628;28;46413;-76
2022/10/07 07:29:01;;;;;;;;;16.00;12.00;;;;;14.11;57.18;101804.72;4994363;28;45598;-77
2022/10/07 07:31:28;;;;;;;;;15.50;12.25;;;;;14.14;57.38;101796.59;4992332;28;45607;-77
2022/10/07 07:33:56;;;;;;;;;17.25;13.50;;;;;14.14;57.14;101796.59;4993387;28;45687;-74
2022/10/07 07:36:24;;;;;;;;;19.00;13.75;;;;;14.15;57.29;101803.56;4994392;28;46784;-77
2022/10/07 07:38:54;;;;;;;;;14.50;13.25;;;;;14.16;56.81;101802.59;4994060;28;46257;-77
2022/10/07 07:41:23;;;;;;;;;13.75;12.75;;;;;14.17;57.35;101799.03;4994528;28;45717;-76
2022/10/07 07:43:53;;;;;;;;;12.50;11.75;;;;;14.18;56.97;101799.88;4994408;28;45877;-77
2022/10/07 07:46:20;;;;;;;;;15.50;12.25;;;;;14.18;57.00;101792.81;4994171;28;45576;-74
2022/10/07 07:48:48;;;;;;;;;17.50;14.25;;;;;14.20;56.85;101795.31;4993862;28;46355;-74
2022/10/07 07:51:16;;;;;;;;;14.75;11.75;;;;;14.22;56.89;101789.03;4994262;28;45531;-74
2022/10/07 07:53:42;;;;;;;;;13.25;11.50;;;;;14.23;57.23;101795.13;4994526;28;45784;-77
2022/10/07 07:56:08;;;;;;;;;19.00;16.00;;;;;14.24;57.32;101791.56;4994549;28;46655;-73
2022/10/07 07:58:34;;;;;;;;;16.00;14.25;;;;;14.26;56.87;101787.00;4993926;28;46214;-75
2022/10/07 08:01:04;;;;;;;;;12.00;9.25;;;;;14.28;57.44;101785.13;4994391;28;46203;-74
2022/10/07 08:03:31;;;;;;;;;16.25;13.50;;;;;14.29;57.25;101782.41;4994913;28;45682;-74
2022/10/07 08:06:00;;;;;;;;;14.00;13.50;;;;;14.31;57.17;101779.63;4994189;28;45678;-73
2022/10/07 08:08:26;;;;;;;;;13.25;12.25;;;;;14.34;57.00;101789.13;4993605;28;46004;-75
2022/10/07 08:10:51;;;;;;;;;14.00;12.50;;;;;14.37;57.18;101786.31;4976268;28;45582;-75
2022/10/07 08:13:17;;;;;;;;;17.75;14.00;;;;;14.38;57.16;101790.66;4994323;28;45685;-74
2022/10/07 08:15:42;;;;;;;;;15.75;11.50;;;;;14.40;57.24;101784.34;4976161;28;48496;-74
2022/10/07 08:18:08;;;;;;;;;14.25;13.50;;;;;14.44;57.01;101790.22;4993858;28;45903;-76
2022/10/07 08:20:35;;;;;;;;;15.25;13.00;;;;;14.45;57.06;101779.59;4994018;28;45466;-76
2022/10/07 08:23:01;;;;;;;;;11.00;10.00;;;;;14.48;56.98;101784.63;4994284;28;45608;-75
2022/10/07 08:25:27;;;;;;;;;14.00;11.75;;;;;14.52;57.10;101774.75;4993710;28;46360;-74
2022/10/07 08:27:52;;;;;;;;;16.75;13.00;;;;;14.55;56.70;101774.53;4993643;28;45693;-74
2022/10/07 08:30:18;;;;;;;;;14.00;12.25;;;;;14.56;56.56;101769.16;4993821;28;45498;-77
2022/10/07 08:32:43;;;;;;;;;12.75;11.75;;;;;14.61;56.55;101768.81;4992679;28;45984;-77
2022/10/07 08:35:09;;;;;;;;;12.75;11.00;;;;;14.64;56.50;101772.09;4994208;28;46414;-76
2022/10/07 08:37:34;;;;;;;;;14.00;11.50;;;;;14.67;56.48;101768.41;4992354;28;46243;-77
2022/10/07 08:39:59;;;;;;;;;15.00;13.00;;;;;14.68;56.59;101762.19;4993473;28;45592;-76
2022/10/07 08:42:45;;;;;;;;;14.00;13.00;;;;;14.73;56.54;101761.84;4996439;28;45669;-73
2022/10/07 08:45:22;;;;;;;;;14.75;14.25;;;;;14.76;56.38;101759.00;4996929;28;45557;-76
2022/10/07 08:47:51;;;;;;;;;11.75;10.75;;;;;14.79;56.73;101756.97;4978950;28;46789;-73
2022/10/07 08:50:29;;;;;;;;;15.50;11.00;;;;;14.84;56.55;101760.16;4996784;28;45711;-75
2022/10/07 08:53:00;;;;;;;;;12.25;11.25;;;;;14.85;56.76;101751.25;4997193;28;45628;-76
2022/10/07 08:55:48;;;;;;;;;11.25;10.50;;;;;14.89;56.56;101759.81;4996938;28;46607;-75
2022/10/07 08:58:32;;;;;;;;;12.25;10.00;;;;;14.93;56.30;101759.50;4996278;28;47129;-76
2022/10/07 09:01:20;;;;;;;;;12.00;11.00;;;;;14.96;56.54;101746.06;4996784;28;45679;-75
2022/10/07 09:04:22;;;;;;;;;10.00;7.50;;;;;14.99;56.61;101745.88;4996652;28;45492;-76
2022/10/07 09:06:54;;;;;;;;;8.00;8.00;;;;;15.02;56.31;101743.00;4996035;28;47864;-77
2022/10/07 09:09:36;;;;;;;;;8.00;7.75;;;;;15.05;56.38;101741.94;4996721;28;46051;-77
2022/10/07 09:12:05;;;;;;;;;7.00;6.50;;;;;15.08;56.50;101739.06;4996719;28;45861;-78
2022/10/07 09:14:36;;;;;;;;;6.75;5.00;;;;;15.10;56.14;101735.38;4996722;28;45712;-77
2022/10/07 09:17:09;;;;;;;;;6.00;5.25;;;;;15.15;56.05;101732.41;4996764;28;46315;-76
2022/10/07 09:19:42;;;;;;;;;8.00;6.00;;;;;15.17;56.18;101727.84;4996315;28;46127;-77
2022/10/07 09:22:22;;;;;;;;;6.50;4.00;;;;;15.22;55.64;101716.97;4996626;28;45686;-77
2022/10/07 09:24:52;;;;;;;;;5.75;3.75;;;;;15.26;55.68;101724.56;4996227;28;45837;-76
2022/10/07 09:27:21;;;;;;;;;4.00;4.00;;;;;15.29;55.58;101720.84;4996315;28;45638;-77
2022/10/07 09:29:47;;;;;;;;;4.00;4.00;;;;;15.32;55.71;101718.00;4995913;28;46520;-77
2022/10/07 09:32:17;;;;;;;;;5.50;4.00;;;;;15.37;55.62;101713.22;4996230;28;45647;-75
2022/10/07 09:34:44;;;;;;;;;4.00;3.50;;;;;15.41;55.33;101709.38;4996452;28;45607;-77
2022/10/07 09:37:20;;;;;;;;;3.25;2.25;;;;;15.46;55.11;101704.59;4996421;28;45575;-77
2022/10/07 09:39:51;;;;;;;;;3.25;3.00;;;;;15.49;55.21;101693.81;4996020;28;46359;-78
2022/10/07 09:42:38;;;;;;;;;2.00;2.00;;;;;15.55;55.19;101703.13;4996072;28;45686;-76
2022/10/07 09:45:25;;;;;;;;;3.00;2.00;;;;;15.59;54.75;101692.22;4996124;28;45866;-76
2022/10/07 09:47:54;;;;;;;;;3.00;2.75;;;;;15.64;54.75;101694.50;4996151;28;46613;-75
2022/10/07 09:50:41;;;;;;;;;3.25;3.00;;;;;15.68;54.94;101685.38;4996031;28;46410;-77
2022/10/07 09:53:20;;;;;;;;;3.00;2.00;;;;;15.73;54.71;101680.59;4995576;28;45612;-77
2022/10/07 09:55:46;;;;;;;;;3.75;3.75;;;;;15.77;54.64;101685.53;4996401;28;45755;-76
2022/10/07 10:01:33;;;;;;;;;4.00;2.50;;;;;15.87;54.14;101673.28;4995712;28;46114;-75
2022/10/07 10:03:59;;;;;;;;;4.00;3.50;;;;;15.92;54.29;101678.25;4996187;28;46061;-75
2022/10/07 10:06:25;;;;;;;;;4.25;3.50;;;;;15.94;54.14;101666.59;4995911;28;45657;-78
2022/10/07 10:08:56;;;;;;;;;2.00;1.75;;;;;16.00;54.24;101662.63;4996155;28;45695;-74
2022/10/07 10:11:29;;;;;;;;;6.00;5.00;;;;;16.05;53.87;101665.75;4977165;28;46582;-77
2022/10/07 10:17:24;;;;;;;;;3.00;2.00;;;;;16.12;53.69;101651.13;4995753;28;45522;-76
2022/10/07 10:19:49;;;;;;;;;3.00;2.25;;;;;16.18;53.08;101657.75;4995374;28;45614;-79
2022/10/07 10:22:24;;;;;;;;;3.50;2.25;;;;;16.22;53.44;101649.44;4995538;28;46293;-77
2022/10/07 10:28:00;;;;;;;;;3.00;1.50;;;;;16.33;52.41;101645.94;4995578;28;45746;-75
2022/10/07 10:34:03;;;;;;;;;2.00;2.00;;;;;16.47;52.05;101635.13;4995366;28;46086;-73
2022/10/07 10:36:34;;;;;;;;;3.75;2.25;;;;;16.53;51.93;101633.78;4995388;28;45631;-78
2022/10/07 10:39:12;;;;;;;;;2.75;2.00;;;;;16.58;51.80;101627.16;4995203;28;45819;-78
2022/10/07 10:41:51;;;;;;;;;2.00;1.00;;;;;16.64;51.86;101628.50;4995577;28;46553;-76
2022/10/07 10:44:31;;;;;;;;;0.25;0.00;;;;;16.69;50.89;101627.19;4995603;28;45489;-74
2022/10/07 10:47:17;;;;;;;;;1.00;1.00;;;;;16.74;51.25;101618.88;4977618;28;46517;-76
2022/10/07 10:50:20;;;;;;;;;3.75;2.50;;;;;16.79;51.17;101622.81;4977674;28;45656;-73
2022/10/07 10:53:17;;;;;;;;;4.25;3.00;;;;;16.85;51.52;101624.13;4978652;28;48893;-78
2022/10/07 10:56:04;;;;;;;;;3.50;3.00;;;;;16.90;50.91;101613.16;4995717;28;46521;-76
2022/10/07 11:02:13;;;;;;;;;3.25;3.25;;;;;16.98;51.29;101601.00;4995109;28;45575;-79
2022/10/07 11:04:56;;;;;;;;;2.50;2.50;;;;;17.02;51.12;101599.78;4992703;28;45989;-78
2022/10/07 11:07:31;;;;;;;;;3.00;3.00;;;;;17.07;50.99;101600.25;4994819;28;46115;-78
2022/10/07 11:10:17;;;;;;;;;5.75;3.00;;;;;17.12;51.03;101591.91;4994846;28;45728;-75
2022/10/07 11:12:47;;;;;;;;;3.00;2.25;;;;;17.15;50.79;101589.88;4995237;28;45653;-76
2022/10/07 11:18:40;;;;;;;;;4.00;3.00;;;;;17.24;50.20;101584.75;4994831;28;45772;-76
2022/10/07 11:21:24;;;;;;;;;4.25;3.25;;;;;17.27;49.81;101581.88;4994619;28;45648;-78
2022/10/07 11:24:19;;;;;;;;;5.50;3.50;;;;;17.31;49.82;101576.19;4994856;28;45704;-77
2022/10/07 11:27:28;;;;;;;;;2.25;2.25;;;;;17.36;49.86;101571.34;4984066;28;45594;-76
2022/10/07 11:30:01;;;;;;;;;3.75;2.00;;;;;17.39;49.57;101564.91;4994889;28;46192;-75
2022/10/07 11:32:34;;;;;;;;;5.75;2.00;;;;;17.43;49.43;101561.06;4978619;28;45715;-78
2022/10/07 11:35:22;;;;;;;;;3.00;1.50;;;;;17.48;49.69;101558.88;4995321;28;45739;-75
2022/10/07 11:38:04;;;;;;;;;3.50;1.25;;;;;17.53;49.35;101551.38;4994621;28;46616;-76
2022/10/07 11:40:33;;;;;;;;;2.00;1.00;;;;;17.55;49.47;101555.53;4994098;28;47132;-78
2022/10/07 11:43:12;;;;;;;;;5.75;5.00;;;;;17.59;49.03;101543.78;4994416;28;45610;-76
2022/10/07 11:45:48;;;;;;;;;4.00;3.00;;;;;17.61;48.71;101544.47;4994732;28;45831;-76
2022/10/07 11:48:22;;;;;;;;;3.25;2.75;;;;;17.66;48.91;101544.06;4994485;28;45484;-74
2022/10/07 11:50:54;;;;;;;;;2.00;2.00;;;;;17.69;48.43;101541.16;4976701;28;46273;-75
2022/10/07 11:53:30;;;;;;;;;2.00;2.00;;;;;17.73;48.33;101545.22;4994786;28;45474;-74
2022/10/07 11:56:03;;;;;;;;;4.50;2.00;;;;;17.75;47.29;101527.38;4994533;28;45745;-77
2022/10/07 12:01:48;;;;;;;;;2.00;1.50;;;;;17.84;47.06;101512.47;4994262;28;45685;-74
2022/10/07 12:04:15;;;;;;;;;3.75;3.00;;;;;17.87;46.87;101512.19;4914620;28;45726;-75
2022/10/07 12:07:18;;;;;;;;;3.00;1.50;;;;;17.92;46.96;101508.16;4914836;28;45710;-75
2022/10/07 12:10:04;;;;;;;;;1.25;1.00;;;;;17.98;46.81;101510.28;4914442;28;46685;-76
2022/10/07 12:12:45;;;;;;;;;2.00;1.75;;;;;18.01;46.76;101504.72;4914746;28;45987;-73